EGKB/BQH METAR and TAF weather

Enter ICAO airport designator
Station Type Date Time Source
EGKB METAR 2018/01/22 22:20 UTC NOAA

EGKB 222220Z 23007KT 9999 BKN026 07/04 Q1019


Station Type Date Time Source
EGKB Decoded METAR 2018/01/22 22:20 UTC NOAA

Biggin Hill , United Kingdom (EGKB) 51-19N 000-02E
Jan 22, 2018 - 05:20 PM EST / 2018.01.22 2220 UTC
Wind: from the SW (230 degrees) at 8 MPH (7 KT):0
Visibility: greater than 7 mile(s):0
Sky conditions: mostly cloudy
Temperature: 44 F (7 C)
Dew Point: 39 F (4 C)
Relative Humidity: 81%
Pressure (altimeter): 30.09 in. Hg (1019 hPa)
ob: EGKB 222220Z 23007KT 9999 BKN026 07/04 Q1019
cycle: 22

Station Type Date Time Source
EGKB TAF 2016/04/18 18:00 UTC NOAA

TAF EGKB 181658Z 1818/1820 26007KT 9999 BKN035


Example: see airport list